Time;durP1;ratioP1;P1;durP2;ratioP2;P2;SDS_P1;SDS_P2;PMS_P1;PMS_P2;Temp;Humidity;BMP_temperature;BMP_pressure;BME280_temperature;BME280_humidity;BME280_pressure;Samples;Min_cycle;Max_cycle;Signal;HPM_P1;HPM_P2
2023/12/26 00:01:54;;;;;;;0.38;0.38;;;;;;;;;;6195680;28;20595;-86
2023/12/26 00:04:56;;;;;;;0.40;0.30;;;;;;;;;;6191838;28;20053;-85
2023/12/26 00:07:58;;;;;;;0.40;0.40;;;;;;;;;;6193679;28;20049;-86
2023/12/26 00:11:01;;;;;;;0.30;0.30;;;;;;;;;;6198990;28;20048;-85
2023/12/26 00:14:02;;;;;;;0.73;0.43;;;;;;;;;;6195584;28;20523;-86
2023/12/26 00:17:04;;;;;;;0.85;0.30;;;;;;;;;;6187884;28;20200;-87
2023/12/26 00:20:07;;;;;;;0.90;0.30;;;;;;;;;;6203428;28;20626;-86
2023/12/26 00:23:10;;;;;;;0.63;0.60;;;;;;;;;;6207019;28;20140;-85
2023/12/26 00:26:12;;;;;;;0.30;0.30;;;;;;;;;;6203706;28;20042;-88
2023/12/26 00:29:17;;;;;;;0.32;0.32;;;;;;;;;;6206892;28;20049;-86
2023/12/26 00:32:19;;;;;;;0.80;0.80;;;;;;;;;;6206170;28;20179;-85
2023/12/26 00:35:21;;;;;;;0.30;0.30;;;;;;;;;;6202204;28;20068;-86
2023/12/26 00:38:23;;;;;;;0.52;0.40;;;;;;;;;;6186918;28;20551;-85
2023/12/26 00:41:25;;;;;;;3.83;0.52;;;;;;;;;;6196466;28;20431;-86
2023/12/26 00:44:28;;;;;;;0.73;0.40;;;;;;;;;;6187759;28;20053;-86
2023/12/26 00:47:31;;;;;;;0.82;0.30;;;;;;;;;;6190337;28;20083;-86
2023/12/26 00:50:32;;;;;;;0.30;0.30;;;;;;;;;;6201201;28;20072;-86
2023/12/26 00:53:34;;;;;;;0.30;0.30;;;;;;;;;;6209573;28;20096;-86
2023/12/26 00:56:36;;;;;;;0.30;0.30;;;;;;;;;;6193126;28;20050;-85
2023/12/26 00:59:38;;;;;;;0.20;0.20;;;;;;;;;;6183241;28;20521;-86
2023/12/26 01:02:40;;;;;;;1.17;0.30;;;;;;;;;;6225593;28;20064;-86
2023/12/26 01:05:41;;;;;;;0.30;0.30;;;;;;;;;;6187745;28;20054;-85
2023/12/26 01:08:43;;;;;;;0.95;0.30;;;;;;;;;;6215990;28;20343;-86
2023/12/26 01:11:45;;;;;;;0.30;0.20;;;;;;;;;;6221056;28;20057;-86
2023/12/26 01:14:47;;;;;;;0.20;0.10;;;;;;;;;;6222864;28;20055;-86
2023/12/26 01:17:49;;;;;;;0.20;0.20;;;;;;;;;;6221790;28;20295;-86
2023/12/26 01:20:51;;;;;;;0.20;0.20;;;;;;;;;;6185472;28;20045;-86
2023/12/26 01:23:55;;;;;;;0.10;0.10;;;;;;;;;;6189449;28;20046;-86
2023/12/26 01:26:57;;;;;;;0.35;0.20;;;;;;;;;;6188652;28;20045;-85
2023/12/26 01:30:01;;;;;;;0.15;0.15;;;;;;;;;;6224886;28;20061;-86
2023/12/26 01:33:03;;;;;;;0.10;0.10;;;;;;;;;;6205088;28;20060;-85
2023/12/26 01:36:06;;;;;;;0.20;0.20;;;;;;;;;;6205071;28;20172;-86
2023/12/26 01:39:08;;;;;;;0.20;0.20;;;;;;;;;;6169341;28;20045;-86
2023/12/26 01:42:10;;;;;;;0.10;0.10;;;;;;;;;;6204505;28;20119;-86
2023/12/26 01:45:12;;;;;;;0.10;0.10;;;;;;;;;;6211833;28;20053;-86
2023/12/26 01:48:18;;;;;;;0.10;0.10;;;;;;;;;;6199180;28;20131;-86
2023/12/26 01:51:22;;;;;;;0.45;0.10;;;;;;;;;;6207764;28;20056;-86
2023/12/26 01:54:30;;;;;;;0.10;0.10;;;;;;;;;;6191035;28;20100;-85
2023/12/26 01:57:34;;;;;;;0.10;0.10;;;;;;;;;;6213948;28;20227;-86
2023/12/26 02:00:36;;;;;;;0.70;0.10;;;;;;;;;;6196869;28;20147;-86
2023/12/26 02:03:38;;;;;;;0.17;0.10;;;;;;;;;;6209601;28;20073;-85
2023/12/26 02:06:40;;;;;;;0.10;0.10;;;;;;;;;;6183521;28;20606;-86
2023/12/26 02:09:42;;;;;;;0.10;0.10;;;;;;;;;;6203229;28;20084;-86
2023/12/26 02:12:44;;;;;;;0.10;0.10;;;;;;;;;;6210412;28;20199;-86
2023/12/26 02:15:48;;;;;;;0.45;0.10;;;;;;;;;;6222652;28;20050;-86
2023/12/26 02:18:51;;;;;;;0.38;0.10;;;;;;;;;;6207861;28;20042;-86
2023/12/26 02:21:53;;;;;;;0.88;0.10;;;;;;;;;;6193066;28;20469;-85
2023/12/26 02:24:55;;;;;;;0.10;0.10;;;;;;;;;;6197021;28;20572;-86
2023/12/26 02:27:59;;;;;;;0.10;0.10;;;;;;;;;;6220180;28;20042;-86
2023/12/26 02:31:03;;;;;;;0.10;0.10;;;;;;;;;;6209271;28;20045;-86
2023/12/26 02:34:06;;;;;;;0.20;0.20;;;;;;;;;;6198136;28;20038;-86
2023/12/26 02:37:08;;;;;;;0.25;0.20;;;;;;;;;;6192284;28;20046;-86
2023/12/26 02:40:10;;;;;;;2.05;1.42;;;;;;;;;;6198160;28;20049;-86
2023/12/26 02:43:14;;;;;;;1.00;0.22;;;;;;;;;;6188647;28;20037;-87
2023/12/26 02:46:16;;;;;;;0.10;0.10;;;;;;;;;;6210739;28;20057;-87
2023/12/26 02:49:18;;;;;;;0.15;0.10;;;;;;;;;;6207541;28;20056;-86
2023/12/26 02:52:20;;;;;;;0.10;0.10;;;;;;;;;;6214497;28;20041;-87
2023/12/26 02:55:22;;;;;;;0.10;0.10;;;;;;;;;;6209076;28;20061;-86
2023/12/26 02:58:24;;;;;;;0.22;0.20;;;;;;;;;;6191645;28;20188;-86
2023/12/26 03:01:28;;;;;;;0.10;0.10;;;;;;;;;;6198710;28;20056;-86
2023/12/26 03:04:29;;;;;;;0.10;0.10;;;;;;;;;;6212306;28;20041;-86
2023/12/26 03:07:31;;;;;;;0.10;0.10;;;;;;;;;;6214122;28;20053;-87
2023/12/26 03:10:36;;;;;;;0.10;0.10;;;;;;;;;;6216424;28;20038;-87
2023/12/26 03:13:37;;;;;;;0.13;0.10;;;;;;;;;;6229007;28;20059;-87
2023/12/26 03:16:39;;;;;;;1.35;0.20;;;;;;;;;;6229766;28;20041;-86
2023/12/26 03:19:41;;;;;;;0.65;0.20;;;;;;;;;;6218506;28;20255;-86
2023/12/26 03:22:44;;;;;;;0.17;0.10;;;;;;;;;;6229760;28;20042;-86
2023/12/26 03:25:46;;;;;;;0.20;0.20;;;;;;;;;;6205910;28;20050;-86
2023/12/26 03:28:48;;;;;;;0.28;0.20;;;;;;;;;;6213273;28;20058;-86
2023/12/26 03:31:49;;;;;;;0.30;0.20;;;;;;;;;;6217551;28;20088;-86
2023/12/26 03:34:51;;;;;;;0.20;0.20;;;;;;;;;;6196317;28;20092;-86
2023/12/26 03:37:53;;;;;;;0.73;0.20;;;;;;;;;;6197965;28;20046;-86
2023/12/26 03:40:57;;;;;;;0.17;0.17;;;;;;;;;;6209432;28;20096;-86
2023/12/26 03:43:58;;;;;;;0.55;0.20;;;;;;;;;;6189586;28;20089;-86
2023/12/26 03:47:00;;;;;;;0.60;0.20;;;;;;;;;;6205854;28;20072;-86
2023/12/26 03:50:07;;;;;;;1.00;0.30;;;;;;;;;;6214157;28;20045;-86
2023/12/26 03:53:12;;;;;;;0.22;0.20;;;;;;;;;;6210992;28;20045;-86
2023/12/26 03:56:16;;;;;;;0.93;0.30;;;;;;;;;;6203940;28;20053;-86
2023/12/26 03:59:18;;;;;;;0.32;0.30;;;;;;;;;;6211256;28;20042;-86
2023/12/26 04:02:20;;;;;;;2.97;0.40;;;;;;;;;;6208579;28;20052;-86
2023/12/26 04:05:23;;;;;;;1.38;0.40;;;;;;;;;;6209816;28;20189;-87
2023/12/26 04:08:25;;;;;;;1.63;0.50;;;;;;;;;;6192622;28;20040;-86
2023/12/26 04:11:30;;;;;;;0.20;0.20;;;;;;;;;;6198320;28;20447;-87
2023/12/26 04:14:31;;;;;;;0.60;0.35;;;;;;;;;;6208625;28;20041;-86
2023/12/26 04:17:34;;;;;;;1.13;0.27;;;;;;;;;;6182653;28;20052;-86
2023/12/26 04:20:36;;;;;;;0.30;0.28;;;;;;;;;;6206908;28;20512;-86
2023/12/26 04:23:38;;;;;;;0.30;0.20;;;;;;;;;;6212129;28;20045;-86
2023/12/26 04:26:42;;;;;;;0.50;0.30;;;;;;;;;;6211028;28;20050;-87
2023/12/26 04:29:44;;;;;;;0.50;0.30;;;;;;;;;;6183123;28;20046;-86
2023/12/26 04:32:46;;;;;;;0.63;0.22;;;;;;;;;;6194950;28;20048;-86
2023/12/26 04:35:48;;;;;;;0.87;0.40;;;;;;;;;;6195052;28;20049;-86
2023/12/26 04:38:51;;;;;;;1.27;0.30;;;;;;;;;;6202956;28;20037;-87
2023/12/26 04:41:53;;;;;;;3.00;0.40;;;;;;;;;;6187778;28;20052;-86
2023/12/26 04:44:57;;;;;;;0.90;0.50;;;;;;;;;;6205747;28;20587;-86
2023/12/26 04:47:59;;;;;;;1.20;0.30;;;;;;;;;;6189935;28;20049;-86
2023/12/26 04:51:02;;;;;;;0.77;0.30;;;;;;;;;;6207925;28;20033;-87
2023/12/26 04:54:06;;;;;;;0.40;0.30;;;;;;;;;;6200283;28;20060;-87
2023/12/26 04:57:11;;;;;;;0.70;0.35;;;;;;;;;;6174553;28;20045;-87
2023/12/26 05:00:18;;;;;;;0.55;0.30;;;;;;;;;;6203482;28;20502;-86
2023/12/26 05:03:20;;;;;;;0.65;0.30;;;;;;;;;;6172008;28;20042;-87
2023/12/26 05:06:23;;;;;;;1.33;0.40;;;;;;;;;;6188141;28;20045;-86
2023/12/26 05:09:25;;;;;;;0.37;0.30;;;;;;;;;;6197183;28;20499;-87
2023/12/26 05:12:27;;;;;;;2.75;0.50;;;;;;;;;;6207545;28;20044;-86
2023/12/26 05:15:29;;;;;;;1.63;0.38;;;;;;;;;;6193596;28;20033;-87
2023/12/26 05:18:32;;;;;;;1.05;0.40;;;;;;;;;;6188133;28;20041;-86
2023/12/26 05:21:34;;;;;;;2.10;0.63;;;;;;;;;;6186893;28;20191;-86
2023/12/26 05:24:35;;;;;;;0.90;0.50;;;;;;;;;;6202114;28;20441;-86
2023/12/26 05:27:52;;;;;;;1.00;0.73;;;;;;;;;;6204783;28;20041;-86
2023/12/26 05:30:54;;;;;;;1.05;0.47;;;;;;;;;;6208113;28;20286;-86
2023/12/26 05:34:02;;;;;;;2.00;0.50;;;;;;;;;;6209542;28;20049;-87
2023/12/26 05:37:04;;;;;;;2.85;0.40;;;;;;;;;;6203202;28;20061;-86
2023/12/26 05:40:08;;;;;;;1.17;0.50;;;;;;;;;;6186074;28;20518;-86
2023/12/26 05:43:11;;;;;;;0.40;0.40;;;;;;;;;;6219199;28;20038;-86
2023/12/26 05:46:13;;;;;;;0.47;0.43;;;;;;;;;;6192928;28;20045;-86
2023/12/26 05:49:15;;;;;;;0.50;0.50;;;;;;;;;;6197701;28;20042;-86
2023/12/26 05:52:18;;;;;;;0.98;0.50;;;;;;;;;;6213962;28;20192;-87
2023/12/26 05:55:21;;;;;;;1.00;0.52;;;;;;;;;;6181483;28;20416;-86
2023/12/26 05:58:25;;;;;;;2.63;0.50;;;;;;;;;;6190854;28;20045;-86
2023/12/26 06:01:27;;;;;;;1.60;0.50;;;;;;;;;;6199833;28;20041;-86
2023/12/26 06:04:29;;;;;;;0.68;0.40;;;;;;;;;;6185579;28;20193;-87
2023/12/26 06:07:31;;;;;;;1.03;0.50;;;;;;;;;;6199591;28;20091;-86
2023/12/26 06:10:33;;;;;;;1.67;0.50;;;;;;;;;;6183388;28;20056;-86
2023/12/26 06:13:36;;;;;;;0.55;0.43;;;;;;;;;;6204852;28;20398;-86
2023/12/26 06:16:38;;;;;;;0.95;0.32;;;;;;;;;;6190720;28;20447;-86
2023/12/26 06:19:40;;;;;;;1.23;0.60;;;;;;;;;;6184506;28;20060;-86
2023/12/26 06:22:45;;;;;;;1.33;0.40;;;;;;;;;;6209353;28;20124;-86
2023/12/26 06:25:46;;;;;;;2.17;0.57;;;;;;;;;;6215674;28;20054;-86
2023/12/26 06:28:49;;;;;;;1.08;0.47;;;;;;;;;;6197629;28;20065;-86
2023/12/26 06:31:51;;;;;;;1.27;0.40;;;;;;;;;;6232605;28;20073;-87
2023/12/26 06:34:54;;;;;;;0.40;0.40;;;;;;;;;;6219735;28;20049;-86
2023/12/26 06:37:58;;;;;;;0.73;0.38;;;;;;;;;;6175926;28;20615;-86
2023/12/26 06:41:02;;;;;;;1.98;0.60;;;;;;;;;;6220577;28;20041;-87
2023/12/26 06:44:07;;;;;;;1.13;0.40;;;;;;;;;;6205684;28;20581;-86
2023/12/26 06:47:11;;;;;;;0.40;0.40;;;;;;;;;;6181898;28;20042;-86
2023/12/26 06:50:13;;;;;;;0.65;0.50;;;;;;;;;;6167738;28;20492;-86
2023/12/26 06:53:20;;;;;;;0.45;0.40;;;;;;;;;;6212772;28;20519;-87
2023/12/26 06:56:22;;;;;;;2.05;0.50;;;;;;;;;;6185754;28;20037;-87
2023/12/26 06:59:24;;;;;;;1.30;0.40;;;;;;;;;;6206492;28;20065;-86
2023/12/26 07:02:28;;;;;;;0.65;0.40;;;;;;;;;;6208409;28;20048;-86
2023/12/26 07:05:33;;;;;;;0.40;0.40;;;;;;;;;;6210245;28;20068;-86
2023/12/26 07:08:38;;;;;;;0.55;0.50;;;;;;;;;;6198868;28;20049;-86
2023/12/26 07:11:40;;;;;;;2.15;0.60;;;;;;;;;;6200997;28;20053;-87
2023/12/26 07:14:44;;;;;;;;;;;;;;;;;;6215377;28;20529;-87
2023/12/26 07:17:46;;;;;;;1.90;0.50;;;;;;;;;;6203815;28;19922;-87
2023/12/26 07:20:52;;;;;;;0.70;0.40;;;;;;;;;;6208795;28;20045;-87
2023/12/26 07:23:54;;;;;;;0.30;0.30;;;;;;;;;;6197043;28;20041;-87
2023/12/26 07:27:00;;;;;;;1.15;0.40;;;;;;;;;;6195454;28;20053;-87
2023/12/26 07:30:02;;;;;;;0.80;0.40;;;;;;;;;;6203504;28;20142;-85
2023/12/26 07:33:08;;;;;;;3.22;0.40;;;;;;;;;;6208462;28;20049;-87
2023/12/26 07:36:10;;;;;;;0.30;0.28;;;;;;;;;;6186266;28;20131;-87
2023/12/26 07:39:12;;;;;;;0.80;0.30;;;;;;;;;;6187759;28;20045;-88
2023/12/26 07:42:14;;;;;;;0.20;0.20;;;;;;;;;;6192336;28;20439;-88
2023/12/26 07:45:23;;;;;;;1.08;0.40;;;;;;;;;;6189537;28;20049;-88
2023/12/26 07:48:25;;;;;;;0.25;0.20;;;;;;;;;;6197095;28;20215;-88
2023/12/26 07:51:27;;;;;;;0.85;0.40;;;;;;;;;;6193548;28;20041;-88
2023/12/26 07:54:32;;;;;;;1.15;0.60;;;;;;;;;;6153683;28;20038;-88
2023/12/26 07:57:34;;;;;;;0.52;0.40;;;;;;;;;;6185979;28;20049;-88
2023/12/26 08:00:36;;;;;;;0.40;0.40;;;;;;;;;;6187107;28;20545;-88
2023/12/26 08:03:38;;;;;;;2.00;0.50;;;;;;;;;;6198598;28;20045;-88
2023/12/26 08:06:40;;;;;;;0.35;0.35;;;;;;;;;;6198174;28;20035;-88
2023/12/26 08:09:42;;;;;;;0.40;0.40;;;;;;;;;;6251055;28;20092;-90
2023/12/26 08:12:44;;;;;;;0.30;0.30;;;;;;;;;;6235424;28;20041;-89
2023/12/26 08:15:46;;;;;;;0.85;0.38;;;;;;;;;;6211844;28;20038;-88
2023/12/26 08:18:48;;;;;;;1.45;0.30;;;;;;;;;;6189817;28;20056;-88
2023/12/26 08:21:50;;;;;;;1.80;0.40;;;;;;;;;;6178123;28;20060;-86
2023/12/26 08:24:52;;;;;;;2.33;0.40;;;;;;;;;;6190341;28;20516;-86
2023/12/26 08:27:55;;;;;;;0.73;0.30;;;;;;;;;;6198715;28;20531;-87
2023/12/26 08:30:56;;;;;;;0.35;0.30;;;;;;;;;;6203436;28;20128;-87
2023/12/26 08:33:58;;;;;;;0.57;0.40;;;;;;;;;;6204732;28;20041;-87
2023/12/26 08:37:01;;;;;;;0.52;0.43;;;;;;;;;;6185308;28;20045;-87
2023/12/26 08:40:03;;;;;;;0.50;0.40;;;;;;;;;;6196666;28;20577;-87
2023/12/26 08:43:06;;;;;;;0.60;0.30;;;;;;;;;;6180086;28;20053;-86
2023/12/26 08:46:08;;;;;;;0.40;0.38;;;;;;;;;;6198669;28;20123;-86
2023/12/26 08:49:10;;;;;;;0.82;0.47;;;;;;;;;;6200814;28;20165;-86
2023/12/26 08:52:13;;;;;;;0.85;0.43;;;;;;;;;;6203989;28;20515;-86
2023/12/26 08:55:15;;;;;;;2.63;0.70;;;;;;;;;;6197743;28;20037;-87
2023/12/26 08:58:17;;;;;;;2.85;0.90;;;;;;;;;;6220964;28;20052;-87
2023/12/26 09:01:19;;;;;;;2.65;0.60;;;;;;;;;;6213926;28;20045;-87
2023/12/26 09:04:26;;;;;;;1.85;0.60;;;;;;;;;;6204152;28;20098;-87
2023/12/26 09:07:29;;;;;;;2.40;0.50;;;;;;;;;;6189871;28;20076;-86
2023/12/26 09:10:33;;;;;;;3.40;0.50;;;;;;;;;;6209078;28;20038;-86
2023/12/26 09:13:35;;;;;;;2.58;0.55;;;;;;;;;;6190919;28;20213;-86
2023/12/26 09:16:37;;;;;;;0.95;0.60;;;;;;;;;;6188887;28;20072;-86
2023/12/26 09:19:40;;;;;;;1.42;0.60;;;;;;;;;;6204188;28;20052;-87
2023/12/26 09:22:42;;;;;;;0.43;0.40;;;;;;;;;;6206552;28;20034;-86
2023/12/26 09:25:45;;;;;;;1.05;0.50;;;;;;;;;;6193697;28;20460;-87
2023/12/26 09:28:48;;;;;;;1.40;0.50;;;;;;;;;;6208928;28;20512;-87
2023/12/26 09:31:53;;;;;;;1.50;0.50;;;;;;;;;;6201733;28;20052;-86
2023/12/26 09:34:54;;;;;;;1.77;0.45;;;;;;;;;;6181612;28;20050;-86
2023/12/26 09:37:56;;;;;;;1.73;0.45;;;;;;;;;;6202448;28;20665;-86
2023/12/26 09:40:58;;;;;;;2.58;0.70;;;;;;;;;;6200084;28;20493;-86
2023/12/26 09:44:00;;;;;;;3.20;0.52;;;;;;;;;;6190704;28;20042;-86
2023/12/26 09:47:06;;;;;;;2.08;0.70;;;;;;;;;;6211909;28;20038;-86
2023/12/26 09:50:10;;;;;;;3.08;0.55;;;;;;;;;;6183942;28;20528;-85
2023/12/26 09:53:17;;;;;;;1.45;0.40;;;;;;;;;;6191999;28;20112;-86
2023/12/26 09:56:19;;;;;;;2.50;0.57;;;;;;;;;;6195081;28;20643;-86
2023/12/26 09:59:25;;;;;;;1.20;0.50;;;;;;;;;;6188255;28;20106;-85
2023/12/26 10:02:27;;;;;;;2.75;0.60;;;;;;;;;;6187042;28;20049;-88
2023/12/26 10:05:30;;;;;;;0.50;0.45;;;;;;;;;;6193647;28;20049;-88
2023/12/26 10:08:32;;;;;;;0.90;0.50;;;;;;;;;;6191234;28;20463;-88
2023/12/26 10:11:37;;;;;;;0.75;0.38;;;;;;;;;;6209624;28;20041;-88
2023/12/26 10:14:40;;;;;;;2.15;0.40;;;;;;;;;;6206564;28;20049;-88
2023/12/26 10:17:43;;;;;;;1.10;0.43;;;;;;;;;;6203075;28;20041;-88
2023/12/26 10:20:48;;;;;;;2.67;0.60;;;;;;;;;;6183549;28;20219;-88
2023/12/26 10:23:59;;;;;;;1.92;0.52;;;;;;;;;;6206323;28;20046;-88
2023/12/26 10:27:06;;;;;;;1.27;0.50;;;;;;;;;;6175446;28;20049;-89
2023/12/26 10:30:19;;;;;;;0.68;0.50;;;;;;;;;;6198460;28;20095;-89
2023/12/26 10:33:26;;;;;;;1.20;0.80;;;;;;;;;;6185510;28;20046;-88
2023/12/26 10:36:30;;;;;;;1.55;0.60;;;;;;;;;;6199889;28;20512;-86
2023/12/26 10:39:34;;;;;;;1.50;0.70;;;;;;;;;;6205179;28;20073;-87
2023/12/26 10:42:47;;;;;;;2.53;0.50;;;;;;;;;;6208723;28;20393;-86
2023/12/26 10:45:51;;;;;;;2.22;0.52;;;;;;;;;;6193283;28;20056;-86
2023/12/26 10:48:56;;;;;;;1.40;0.50;;;;;;;;;;6195715;28;20461;-87
2023/12/26 10:52:02;;;;;;;1.27;0.70;;;;;;;;;;6199952;28;20168;-86
2023/12/26 10:55:05;;;;;;;2.70;0.80;;;;;;;;;;6174194;28;20052;-86
2023/12/26 10:58:08;;;;;;;1.45;0.52;;;;;;;;;;6205510;28;20050;-87
2023/12/26 11:01:11;;;;;;;3.72;1.00;;;;;;;;;;6195935;28;20054;-86
2023/12/26 11:04:14;;;;;;;1.52;0.47;;;;;;;;;;6204688;28;20053;-87
2023/12/26 11:07:16;;;;;;;0.95;0.60;;;;;;;;;;6191566;28;20044;-86
2023/12/26 11:10:18;;;;;;;2.50;0.70;;;;;;;;;;6187645;28;20060;-86
2023/12/26 11:13:21;;;;;;;3.83;0.85;;;;;;;;;;6194940;28;20048;-86
2023/12/26 11:16:23;;;;;;;1.67;0.73;;;;;;;;;;6209141;28;20500;-86
2023/12/26 11:19:26;;;;;;;3.58;0.88;;;;;;;;;;6191904;28;20054;-87
2023/12/26 11:22:29;;;;;;;1.40;0.60;;;;;;;;;;6217259;28;20093;-87
2023/12/26 11:25:33;;;;;;;1.23;1.13;;;;;;;;;;6186700;28;20042;-87
2023/12/26 11:28:38;;;;;;;2.90;0.60;;;;;;;;;;6217598;28;20060;-86
2023/12/26 11:31:40;;;;;;;2.42;0.73;;;;;;;;;;6197074;28;20770;-83
2023/12/26 11:34:42;;;;;;;1.25;0.50;;;;;;;;;;6216955;28;20049;-83
2023/12/26 11:37:44;;;;;;;3.10;0.65;;;;;;;;;;6228402;28;20534;-82
2023/12/26 11:40:46;;;;;;;3.00;0.65;;;;;;;;;;6216617;28;20100;-86
2023/12/26 11:43:48;;;;;;;2.95;0.70;;;;;;;;;;6196030;28;20148;-86
2023/12/26 11:46:50;;;;;;;1.95;0.85;;;;;;;;;;6216298;28;20046;-86
2023/12/26 11:49:58;;;;;;;2.30;0.60;;;;;;;;;;6261884;28;20588;-77
2023/12/26 11:53:00;;;;;;;1.63;0.60;;;;;;;;;;6259031;28;20131;-78
2023/12/26 11:56:02;;;;;;;2.55;0.60;;;;;;;;;;6244914;28;20072;-78
2023/12/26 11:59:04;;;;;;;3.42;0.80;;;;;;;;;;6261398;28;20068;-80
2023/12/26 12:02:06;;;;;;;1.13;0.60;;;;;;;;;;6261586;28;20395;-78
2023/12/26 12:05:07;;;;;;;2.72;0.63;;;;;;;;;;6261457;28;20567;-76
2023/12/26 12:08:12;;;;;;;2.30;0.70;;;;;;;;;;6261374;28;20094;-77
2023/12/26 12:11:14;;;;;;;2.92;0.70;;;;;;;;;;6260557;28;20049;-77
2023/12/26 12:14:16;;;;;;;2.38;0.70;;;;;;;;;;6260086;28;20144;-77
2023/12/26 12:17:17;;;;;;;3.60;0.80;;;;;;;;;;6262072;28;20044;-77
2023/12/26 12:20:19;;;;;;;3.40;0.90;;;;;;;;;;6259279;28;20055;-77
2023/12/26 12:23:21;;;;;;;3.10;0.70;;;;;;;;;;6261313;28;20184;-77
2023/12/26 12:26:22;;;;;;;1.75;0.80;;;;;;;;;;6255258;28;20822;-77
2023/12/26 12:29:24;;;;;;;2.10;0.90;;;;;;;;;;6243719;28;20087;-78
2023/12/26 12:32:36;;;;;;;3.08;0.80;;;;;;;;;;6262541;28;20045;-78
2023/12/26 12:35:47;;;;;;;2.65;0.70;;;;;;;;;;6247032;28;20037;-77
2023/12/26 12:38:49;;;;;;;3.40;0.80;;;;;;;;;;6257062;28;20053;-78
2023/12/26 12:41:51;;;;;;;1.58;0.88;;;;;;;;;;6260788;28;20119;-78
2023/12/26 12:44:53;;;;;;;5.00;1.35;;;;;;;;;;6259849;28;20052;-78
2023/12/26 12:47:54;;;;;;;6.90;1.00;;;;;;;;;;6259353;28;20068;-78
2023/12/26 12:50:57;;;;;;;2.13;0.63;;;;;;;;;;6262718;28;20577;-78
2023/12/26 12:53:58;;;;;;;3.57;0.80;;;;;;;;;;6262929;28;20079;-78
2023/12/26 12:57:00;;;;;;;5.88;1.30;;;;;;;;;;6261287;28;20091;-78
2023/12/26 13:00:02;;;;;;;3.05;0.80;;;;;;;;;;6254376;28;20056;-77
2023/12/26 13:03:04;;;;;;;5.90;1.02;;;;;;;;;;6244186;28;20063;-78
2023/12/26 13:06:19;;;;;;;4.43;1.05;;;;;;;;;;6245121;28;20052;-76
2023/12/26 13:09:21;;;;;;;2.95;0.80;;;;;;;;;;6241059;28;20562;-78
2023/12/26 13:12:22;;;;;;;5.80;1.20;;;;;;;;;;6248521;28;20049;-78
2023/12/26 13:15:24;;;;;;;3.67;1.05;;;;;;;;;;6246649;28;20048;-78
2023/12/26 13:18:26;;;;;;;4.90;1.17;;;;;;;;;;6246678;28;20142;-78
2023/12/26 13:21:28;;;;;;;3.30;0.70;;;;;;;;;;6249415;28;20049;-78
2023/12/26 13:24:29;;;;;;;4.13;0.95;;;;;;;;;;6246237;28;20080;-78
2023/12/26 13:27:31;;;;;;;4.00;0.90;;;;;;;;;;6243665;28;20573;-78
2023/12/26 13:30:33;;;;;;;4.35;1.00;;;;;;;;;;6247039;28;20075;-78
2023/12/26 13:33:35;;;;;;;4.30;1.02;;;;;;;;;;6245252;28;20558;-78
2023/12/26 13:36:36;;;;;;;3.53;0.98;;;;;;;;;;6248863;28;20131;-78
2023/12/26 13:39:38;;;;;;;3.28;1.20;;;;;;;;;;6241534;28;20056;-79
2023/12/26 13:42:40;;;;;;;4.47;0.93;;;;;;;;;;6248276;28;20045;-78
2023/12/26 13:45:41;;;;;;;2.92;1.10;;;;;;;;;;6246057;28;20044;-79
2023/12/26 13:48:43;;;;;;;1.88;0.90;;;;;;;;;;6230446;28;20100;-78
2023/12/26 13:51:45;;;;;;;5.90;2.13;;;;;;;;;;6246369;28;20052;-77
2023/12/26 13:54:47;;;;;;;4.50;1.40;;;;;;;;;;6244516;28;20048;-77
2023/12/26 13:57:48;;;;;;;5.68;1.27;;;;;;;;;;6245337;28;20041;-78
2023/12/26 14:00:50;;;;;;;3.22;0.90;;;;;;;;;;6244003;28;20097;-78
2023/12/26 14:03:52;;;;;;;3.40;1.10;;;;;;;;;;6242568;28;20071;-78
2023/12/26 14:06:54;;;;;;;6.30;1.53;;;;;;;;;;6244069;28;20044;-78
2023/12/26 14:09:56;;;;;;;4.55;1.40;;;;;;;;;;6227214;28;20110;-78
2023/12/26 14:12:57;;;;;;;4.90;1.30;;;;;;;;;;6241155;28;20080;-77
2023/12/26 14:15:59;;;;;;;4.57;1.20;;;;;;;;;;6244852;28;20771;-78
2023/12/26 14:19:01;;;;;;;10.20;1.33;;;;;;;;;;6243100;28;20053;-78
2023/12/26 14:22:03;;;;;;;5.30;1.00;;;;;;;;;;6243217;28;20044;-77
2023/12/26 14:25:05;;;;;;;5.63;1.20;;;;;;;;;;6226286;28;20045;-78
2023/12/26 14:28:06;;;;;;;7.13;1.20;;;;;;;;;;6241372;28;20037;-78
2023/12/26 14:31:08;;;;;;;4.43;1.50;;;;;;;;;;6242689;28;20049;-77
2023/12/26 14:34:11;;;;;;;7.15;1.13;;;;;;;;;;6243908;28;20067;-78
2023/12/26 14:37:13;;;;;;;3.60;1.00;;;;;;;;;;6240306;28;20404;-78
2023/12/26 14:40:14;;;;;;;5.60;1.40;;;;;;;;;;6242662;28;21028;-77
2023/12/26 14:43:16;;;;;;;6.28;1.45;;;;;;;;;;6246875;28;20067;-77
2023/12/26 14:46:18;;;;;;;6.63;1.40;;;;;;;;;;6242803;28;20088;-78
2023/12/26 14:49:19;;;;;;;4.38;1.52;;;;;;;;;;6240100;28;20399;-77
2023/12/26 14:52:21;;;;;;;3.97;1.17;;;;;;;;;;6245142;28;20049;-78
2023/12/26 14:55:23;;;;;;;6.18;1.50;;;;;;;;;;6243817;28;20530;-78
2023/12/26 14:58:25;;;;;;;5.78;1.80;;;;;;;;;;6241340;28;20052;-77
2023/12/26 15:01:26;;;;;;;5.60;2.03;;;;;;;;;;6245807;28;20049;-77
2023/12/26 15:04:29;;;;;;;3.00;1.17;;;;;;;;;;6246207;28;20558;-78
2023/12/26 15:07:31;;;;;;;4.18;1.73;;;;;;;;;;6241677;28;20048;-77
2023/12/26 15:10:33;;;;;;;10.65;1.70;;;;;;;;;;6237804;28;20097;-78
2023/12/26 15:13:35;;;;;;;8.07;1.70;;;;;;;;;;6234280;28;20143;-78
2023/12/26 15:16:47;;;;;;;4.68;1.38;;;;;;;;;;6248977;28;20439;-78
2023/12/26 15:19:48;;;;;;;4.57;2.13;;;;;;;;;;6249638;28;20128;-79
2023/12/26 15:22:50;;;;;;;3.65;1.40;;;;;;;;;;6253586;28;20056;-78
2023/12/26 15:25:52;;;;;;;5.72;2.00;;;;;;;;;;6251026;28;20546;-79
2023/12/26 15:28:54;;;;;;;8.70;2.00;;;;;;;;;;6247761;28;20048;-77
2023/12/26 15:31:56;;;;;;;4.97;1.52;;;;;;;;;;6244335;28;20052;-77
2023/12/26 15:35:00;;;;;;;6.90;2.40;;;;;;;;;;6247557;28;20072;-77
2023/12/26 15:38:02;;;;;;;6.75;1.88;;;;;;;;;;6248617;28;20571;-77
2023/12/26 15:41:03;;;;;;;7.38;1.80;;;;;;;;;;6253928;28;20137;-78
2023/12/26 15:44:07;;;;;;;5.68;2.28;;;;;;;;;;6235072;28;20534;-78
2023/12/26 15:47:08;;;;;;;;;;;;;;;;;;6252566;28;20045;-78
2023/12/26 15:50:11;;;;;;;6.55;1.77;;;;;;;;;;6244290;28;19924;-78
2023/12/26 15:53:13;;;;;;;3.05;1.40;;;;;;;;;;6243083;28;20080;-77
2023/12/26 15:56:16;;;;;;;6.57;1.65;;;;;;;;;;6247845;28;20049;-78
2023/12/26 15:59:18;;;;;;;5.60;1.58;;;;;;;;;;6246539;28;20135;-77
2023/12/26 16:02:20;;;;;;;7.03;1.95;;;;;;;;;;6241543;28;20534;-77
2023/12/26 16:05:21;;;;;;;4.72;1.27;;;;;;;;;;6244009;28;20096;-78
2023/12/26 16:08:24;;;;;;;5.72;1.70;;;;;;;;;;6245038;28;20045;-77
2023/12/26 16:11:25;;;;;;;4.43;1.38;;;;;;;;;;6248299;28;20072;-78
2023/12/26 16:14:27;;;;;;;6.97;2.85;;;;;;;;;;6252768;28;20048;-78
2023/12/26 16:17:29;;;;;;;4.68;1.50;;;;;;;;;;6230178;28;20045;-78
2023/12/26 16:20:30;;;;;;;5.05;2.15;;;;;;;;;;6251348;28;20080;-78
2023/12/26 16:23:32;;;;;;;3.97;1.63;;;;;;;;;;6248879;28;20192;-78
2023/12/26 16:26:38;;;;;;;10.05;1.48;;;;;;;;;;6251940;28;20186;-78
2023/12/26 16:29:40;;;;;;;6.53;1.30;;;;;;;;;;6230375;28;20048;-78
2023/12/26 16:32:42;;;;;;;6.72;1.73;;;;;;;;;;6246803;28;20161;-78
2023/12/26 16:35:44;;;;;;;5.32;1.35;;;;;;;;;;6250052;28;20049;-77
2023/12/26 16:38:47;;;;;;;;;;;;;;;;;;6250352;28;20522;-77
2023/12/26 16:41:59;;;;;;;2.90;1.10;;;;;;;;;;6249369;28;19928;-78
2023/12/26 16:45:02;;;;;;;6.72;1.60;;;;;;;;;;6236220;28;20418;-77
2023/12/26 16:48:04;;;;;;;5.25;1.30;;;;;;;;;;6250122;28;20045;-77
2023/12/26 16:51:07;;;;;;;4.22;1.30;;;;;;;;;;6251776;28;20554;-77
2023/12/26 16:54:08;;;;;;;8.02;1.40;;;;;;;;;;6216777;28;20048;-77
2023/12/26 16:57:10;;;;;;;5.43;1.58;;;;;;;;;;6251620;28;20048;-78
2023/12/26 17:00:13;;;;;;;6.45;1.10;;;;;;;;;;6248109;28;20075;-77
2023/12/26 17:03:14;;;;;;;12.67;1.50;;;;;;;;;;6247883;28;20126;-78
2023/12/26 17:06:17;;;;;;;4.95;1.15;;;;;;;;;;6254867;28;20906;-77
2023/12/26 17:09:19;;;;;;;6.82;1.75;;;;;;;;;;6247398;28;20052;-78
2023/12/26 17:12:24;;;;;;;3.28;1.23;;;;;;;;;;6233541;28;20121;-78
2023/12/26 17:15:26;;;;;;;7.45;1.40;;;;;;;;;;6229558;28;20641;-77
2023/12/26 17:18:28;;;;;;;5.30;1.80;;;;;;;;;;6248601;28;20724;-78
2023/12/26 17:21:31;;;;;;;4.72;1.38;;;;;;;;;;6249804;28;20037;-78
2023/12/26 17:24:33;;;;;;;;;;;;;;;;;;6247390;28;21871;-77
2023/12/26 17:27:36;;;;;;;6.13;1.48;;;;;;;;;;6252443;28;19924;-78
2023/12/26 17:30:38;;;;;;;11.53;1.63;;;;;;;;;;6247698;28;20048;-78
2023/12/26 17:33:40;;;;;;;5.43;1.52;;;;;;;;;;6243680;28;20044;-78
2023/12/26 17:36:42;;;;;;;6.28;1.30;;;;;;;;;;6245540;28;20053;-78
2023/12/26 17:39:44;;;;;;;5.65;1.30;;;;;;;;;;6235944;28;20630;-78
2023/12/26 17:42:45;;;;;;;6.47;1.50;;;;;;;;;;6245151;28;20079;-77
2023/12/26 17:45:47;;;;;;;3.97;1.40;;;;;;;;;;6243126;28;20049;-77
2023/12/26 17:48:49;;;;;;;4.55;1.27;;;;;;;;;;6226271;28;20188;-77
2023/12/26 17:51:51;;;;;;;2.72;1.02;;;;;;;;;;6244452;28;20114;-77
2023/12/26 17:54:53;;;;;;;5.55;1.55;;;;;;;;;;6244984;28;20072;-77
2023/12/26 17:57:54;;;;;;;8.57;1.55;;;;;;;;;;6241747;28;20191;-77
2023/12/26 18:00:57;;;;;;;10.77;1.90;;;;;;;;;;6239057;28;20045;-77
2023/12/26 18:03:59;;;;;;;5.25;1.92;;;;;;;;;;6240850;28;20113;-77
2023/12/26 18:07:00;;;;;;;5.22;1.25;;;;;;;;;;6247419;28;20053;-77
2023/12/26 18:10:02;;;;;;;7.30;1.73;;;;;;;;;;6245688;28;20041;-77
2023/12/26 18:13:04;;;;;;;4.35;1.00;;;;;;;;;;6248029;28;20725;-77
2023/12/26 18:16:06;;;;;;;6.32;1.15;;;;;;;;;;6243942;28;20041;-77